createdAt,value
2018-05-14T00:23:49.950Z,12.71
2018-05-14T00:26:18.491Z,12.80
2018-05-14T22:02:42.516Z,13.60
2018-05-14T22:05:10.012Z,13.42
2018-05-14T22:07:37.418Z,13.34
2018-05-14T22:10:04.839Z,13.33
2018-05-14T22:12:32.230Z,13.19
2018-05-14T22:14:59.851Z,13.26
2018-05-14T22:17:27.354Z,13.33
2018-05-14T22:19:54.756Z,13.10
2018-05-14T22:22:22.387Z,13.04
2018-05-14T22:24:50.020Z,13.18
2018-05-14T22:27:17.405Z,13.23
2018-05-14T22:29:44.818Z,13.21
2018-05-14T22:32:12.305Z,13.04
2018-05-14T22:34:39.764Z,12.96
2018-05-14T22:37:07.148Z,13.14
2018-05-14T22:39:34.557Z,13.00
2018-05-14T22:42:02.079Z,12.97
2018-05-14T22:44:29.589Z,13.10
2018-05-14T22:46:56.963Z,13.01
2018-05-14T22:49:24.376Z,12.92
2018-05-14T22:51:51.764Z,12.81
2018-05-14T22:54:30.918Z,12.76
2018-05-14T22:56:58.314Z,12.65
2018-05-14T22:59:25.697Z,12.71
2018-05-14T23:01:54.123Z,12.65
2018-05-14T23:04:21.523Z,12.63
2018-05-14T23:06:48.930Z,12.60
2018-05-14T23:09:16.586Z,12.58
2018-05-14T23:11:43.996Z,12.52
2018-05-14T23:14:11.396Z,12.46
2018-05-14T23:16:38.808Z,12.42
2018-05-14T23:19:06.195Z,12.39
2018-05-14T23:21:33.600Z,12.41
2018-05-14T23:24:01.082Z,12.41
2018-05-14T23:26:28.497Z,12.36
2018-05-14T23:28:55.915Z,12.41
2018-05-14T23:31:23.960Z,12.36
2018-05-14T23:33:51.498Z,12.37
2018-05-14T23:36:19.339Z,12.33
2018-05-14T23:38:46.725Z,12.32
2018-05-14T23:41:14.133Z,12.37
2018-05-14T23:43:41.543Z,12.36
2018-05-14T23:46:08.942Z,12.36
2018-05-14T23:48:36.333Z,12.35
2018-05-14T23:51:03.743Z,12.38
2018-05-14T23:53:31.421Z,12.35
2018-05-14T23:55:58.816Z,12.46
2018-05-14T23:58:26.219Z,12.52
